createdAt,value
2023-06-03T00:01:04.732Z,48.51
2023-06-03T00:03:31.693Z,48.04
2023-06-03T00:05:58.488Z,48.89
2023-06-03T00:08:25.108Z,49.96
2023-06-03T00:10:52.824Z,51.07
2023-06-03T00:13:19.540Z,52.40
2023-06-03T00:15:46.286Z,52.13
2023-06-03T00:18:12.917Z,53.02
2023-06-03T00:20:46.759Z,52.97
2023-06-03T00:23:13.489Z,51.77
2023-06-03T00:25:40.217Z,50.36
2023-06-03T00:28:06.813Z,51.23
2023-06-03T00:30:34.464Z,51.27
2023-06-03T00:33:01.707Z,51.29
2023-06-03T00:35:28.461Z,49.87
2023-06-03T00:37:55.406Z,49.27
2023-06-03T00:40:22.389Z,49.68
2023-06-03T00:42:49.032Z,48.83
2023-06-03T00:45:15.661Z,48.40
2023-06-03T00:47:42.233Z,48.49
2023-06-03T00:50:08.864Z,48.67
2023-06-03T00:52:35.563Z,48.23
2023-06-03T00:55:03.240Z,47.81
2023-06-03T00:57:29.838Z,48.11
2023-06-03T00:59:56.528Z,47.87
2023-06-03T01:02:25.054Z,48.62
2023-06-03T01:04:51.712Z,48.52
2023-06-03T01:07:18.558Z,48.46
2023-06-03T01:09:45.299Z,48.38
2023-06-03T01:12:11.947Z,48.86
2023-06-03T01:14:38.569Z,49.69
2023-06-03T01:17:05.174Z,49.61
2023-06-03T01:19:32.043Z,48.94
2023-06-03T01:21:59.854Z,49.37
2023-06-03T01:24:26.920Z,49.77
2023-06-03T01:26:53.591Z,49.29
2023-06-03T01:29:20.286Z,49.02
2023-06-03T01:31:47.220Z,49.36
2023-06-03T01:34:13.856Z,49.14
2023-06-03T01:36:40.845Z,49.58
2023-06-03T01:39:07.381Z,49.13
2023-06-03T01:41:35.512Z,49.09
2023-06-03T01:44:02.148Z,48.94
2023-06-03T01:46:28.997Z,49.10
2023-06-03T01:48:55.811Z,49.32
2023-06-03T01:51:22.470Z,49.83
2023-06-03T01:53:49.431Z,49.97
2023-06-03T01:56:16.359Z,50.48
2023-06-03T01:58:43.189Z,50.59
2023-06-03T02:01:10.039Z,50.72
2023-06-03T02:03:36.709Z,51.15
2023-06-03T02:06:03.391Z,51.90
2023-06-03T02:08:30.111Z,52.08
2023-06-03T02:10:57.174Z,52.83
2023-06-03T02:13:23.921Z,52.56
2023-06-03T02:15:50.878Z,53.11
2023-06-03T02:18:17.568Z,52.95
2023-06-03T02:20:44.209Z,55.08
2023-06-03T02:23:10.850Z,55.08
2023-06-03T02:25:37.397Z,54.38
2023-06-03T02:28:04.378Z,54.04
2023-06-03T02:30:31.024Z,53.63
2023-06-03T02:32:57.759Z,53.17
2023-06-03T02:35:24.679Z,53.05
2023-06-03T02:37:51.249Z,54.04
2023-06-03T02:40:18.190Z,54.57
2023-06-03T02:42:44.848Z,56.08
2023-06-03T02:45:11.429Z,57.09
2023-06-03T02:47:38.297Z,56.45
2023-06-03T02:50:04.998Z,56.05
2023-06-03T02:52:31.586Z,56.52
2023-06-03T02:54:59.090Z,55.07
2023-06-03T02:57:25.589Z,55.57
2023-06-03T02:59:52.227Z,57.13
2023-06-03T03:02:19.039Z,57.20
2023-06-03T03:04:46.699Z,55.76
2023-06-03T03:07:13.384Z,56.63
2023-06-03T03:09:40.183Z,56.85
2023-06-03T03:12:09.189Z,56.61
2023-06-03T03:14:35.818Z,55.54
2023-06-03T03:17:02.585Z,54.99
2023-06-03T03:19:29.422Z,53.62
2023-06-03T03:21:56.111Z,53.04
2023-06-03T03:24:23.152Z,52.81
2023-06-03T03:26:49.780Z,53.49
2023-06-03T03:29:16.446Z,53.55
2023-06-03T03:31:43.385Z,54.31
2023-06-03T03:34:10.087Z,53.87
2023-06-03T03:36:37.738Z,54.66
2023-06-03T03:39:04.430Z,54.58
2023-06-03T03:41:31.098Z,53.85
2023-06-03T03:43:58.823Z,53.00
2023-06-03T03:46:25.789Z,52.88
2023-06-03T03:48:53.452Z,52.84
2023-06-03T03:51:20.214Z,54.67
2023-06-03T03:53:47.589Z,53.69
2023-06-03T03:56:15.060Z,53.30
2023-06-03T03:58:42.017Z,52.54
2023-06-03T04:01:08.932Z,52.48
2023-06-03T04:03:35.792Z,52.36
2023-06-03T04:06:02.745Z,53.20
2023-06-03T04:08:29.447Z,52.97
2023-06-03T04:10:56.358Z,52.76
2023-06-03T04:13:23.009Z,53.07
2023-06-03T04:15:49.805Z,51.96
2023-06-03T04:18:16.494Z,52.35
2023-06-03T04:20:43.486Z,51.65
2023-06-03T04:23:10.726Z,51.74
2023-06-03T04:25:37.649Z,50.98
2023-06-03T04:28:04.651Z,50.73
2023-06-03T04:30:32.061Z,51.01
2023-06-03T04:32:59.793Z,50.94
2023-06-03T04:35:26.471Z,50.38
2023-06-03T04:37:53.083Z,50.90
2023-06-03T04:40:19.732Z,50.48
2023-06-03T04:42:46.306Z,50.29
2023-06-03T04:45:13.156Z,50.06
2023-06-03T04:47:39.776Z,49.69
2023-06-03T04:50:07.667Z,49.50
2023-06-03T04:52:34.542Z,49.46
2023-06-03T04:55:01.213Z,49.51
2023-06-03T04:57:27.798Z,49.32
2023-06-03T04:59:56.851Z,49.72
2023-06-03T05:02:25.800Z,49.48
2023-06-03T05:04:52.740Z,48.41
2023-06-03T05:07:20.402Z,45.62
2023-06-03T05:09:48.005Z,43.14
2023-06-03T05:12:15.376Z,40.88
2023-06-03T05:14:42.131Z,38.98
2023-06-03T05:17:09.086Z,37.54
2023-06-03T05:19:40.883Z,36.58
2023-06-03T05:22:11.706Z,35.02
2023-06-03T05:24:41.596Z,33.77
2023-06-03T05:27:10.126Z,32.75
2023-06-03T05:29:36.798Z,31.69
2023-06-03T05:32:03.601Z,30.94
2023-06-03T05:34:30.292Z,29.83
2023-06-03T05:36:58.228Z,29.97
2023-06-03T05:39:24.842Z,29.93
2023-06-03T05:41:51.488Z,29.04
2023-06-03T05:44:18.409Z,28.51
2023-06-03T05:46:44.959Z,28.49
2023-06-03T05:49:11.906Z,28.07
2023-06-03T05:51:38.579Z,27.97
2023-06-03T05:54:05.665Z,27.29
2023-06-03T05:56:32.613Z,26.65
2023-06-03T05:59:00.092Z,26.80
2023-06-03T06:01:27.145Z,26.00
2023-06-03T06:03:57.212Z,25.74
2023-06-03T06:06:25.624Z,25.45
2023-06-03T06:08:52.270Z,26.31
2023-06-03T06:11:18.869Z,25.89
2023-06-03T06:13:46.215Z,25.30
2023-06-03T06:16:12.967Z,25.06
2023-06-03T06:18:40.744Z,25.98
2023-06-03T06:21:07.884Z,25.20
2023-06-03T06:23:34.886Z,25.04
2023-06-03T06:26:01.526Z,25.68
2023-06-03T06:28:28.291Z,26.65
2023-06-03T06:30:54.942Z,25.67
2023-06-03T06:33:23.384Z,25.79
2023-06-03T06:35:50.025Z,25.96
2023-06-03T06:38:26.845Z,25.90
2023-06-03T06:40:53.554Z,25.59
2023-06-03T06:43:20.505Z,26.20
2023-06-03T06:45:47.959Z,26.23
2023-06-03T06:48:14.908Z,25.87
2023-06-03T06:50:41.508Z,25.80
2023-06-03T06:53:08.129Z,25.73
2023-06-03T06:55:34.781Z,27.20
2023-06-03T06:58:02.484Z,26.02
2023-06-03T07:00:29.439Z,25.75
2023-06-03T07:02:56.064Z,25.52
2023-06-03T07:05:22.788Z,26.47
2023-06-03T07:07:50.421Z,26.75
2023-06-03T07:10:18.116Z,25.94
2023-06-03T07:12:44.839Z,25.98
2023-06-03T07:15:11.724Z,25.73
2023-06-03T07:17:38.708Z,27.00
2023-06-03T07:20:06.056Z,25.71
2023-06-03T07:22:32.950Z,26.29
2023-06-03T07:24:59.617Z,27.10
2023-06-03T07:27:26.624Z,27.27
2023-06-03T07:29:53.244Z,26.36
2023-06-03T07:32:19.821Z,26.97
2023-06-03T07:34:46.410Z,28.06
2023-06-03T07:37:13.111Z,27.28
2023-06-03T07:39:41.572Z,26.81
2023-06-03T07:42:08.452Z,28.76
2023-06-03T07:44:37.427Z,28.68
2023-06-03T07:47:04.181Z,27.55
2023-06-03T07:49:31.024Z,27.72
2023-06-03T07:51:57.602Z,27.16
2023-06-03T07:54:24.452Z,28.00
2023-06-03T07:56:51.171Z,28.63
2023-06-03T07:59:18.104Z,27.84
2023-06-03T08:01:44.712Z,28.35
2023-06-03T08:04:11.373Z,28.61
2023-06-03T08:06:38.321Z,28.93
2023-06-03T08:09:05.045Z,28.88
2023-06-03T08:11:32.066Z,30.12
2023-06-03T08:13:58.776Z,32.47
2023-06-03T08:16:25.625Z,32.68
2023-06-03T08:18:53.328Z,33.49
2023-06-03T08:21:20.411Z,35.12
2023-06-03T08:23:47.505Z,36.33
2023-06-03T08:26:14.442Z,36.79
2023-06-03T08:28:43.210Z,38.65
2023-06-03T08:31:09.919Z,41.37
2023-06-03T08:33:36.637Z,40.97
2023-06-03T08:36:03.342Z,41.30
2023-06-03T08:38:30.266Z,41.15
2023-06-03T08:40:57.254Z,41.06
2023-06-03T08:43:24.704Z,42.22
2023-06-03T08:45:51.686Z,41.19
2023-06-03T08:48:18.377Z,41.56
2023-06-03T08:50:44.984Z,41.93
2023-06-03T08:53:11.683Z,44.16
2023-06-03T08:55:38.533Z,43.68
2023-06-03T08:58:06.150Z,43.62
2023-06-03T09:00:32.850Z,42.22
2023-06-03T09:02:59.703Z,42.90
2023-06-03T09:05:26.927Z,41.97
2023-06-03T09:07:54.667Z,42.40
2023-06-03T09:10:21.336Z,44.47
2023-06-03T09:12:48.857Z,44.60
2023-06-03T09:15:15.475Z,44.33
2023-06-03T09:17:44.687Z,43.74
2023-06-03T09:20:16.857Z,43.44
2023-06-03T09:22:43.716Z,42.92
2023-06-03T09:25:10.408Z,42.43
2023-06-03T09:27:37.596Z,42.46
2023-06-03T09:30:05.633Z,41.59
2023-06-03T09:32:32.633Z,42.45
2023-06-03T09:34:59.785Z,41.41
2023-06-03T09:37:30.195Z,41.26
2023-06-03T09:40:00.183Z,41.33
2023-06-03T09:42:28.947Z,40.59
2023-06-03T09:44:56.393Z,40.49
2023-06-03T09:47:23.073Z,41.71
2023-06-03T09:49:51.083Z,41.18
2023-06-03T09:52:17.768Z,40.55
2023-06-03T09:54:44.426Z,41.78
2023-06-03T09:57:14.261Z,42.21
2023-06-03T09:59:41.249Z,41.29
2023-06-03T10:02:08.864Z,41.59
2023-06-03T10:04:35.604Z,40.35
2023-06-03T10:07:02.245Z,40.23
2023-06-03T10:09:29.715Z,40.96
2023-06-03T10:11:56.356Z,42.38
2023-06-03T10:14:24.168Z,43.00
2023-06-03T10:16:51.135Z,41.81
2023-06-03T10:19:19.292Z,40.98
2023-06-03T10:21:48.401Z,41.15
2023-06-03T10:24:17.316Z,41.65
2023-06-03T10:26:45.592Z,40.49
2023-06-03T10:29:12.195Z,39.57
2023-06-03T10:31:41.363Z,40.01
2023-06-03T10:34:09.383Z,38.18
2023-06-03T10:36:36.046Z,38.85
2023-06-03T10:39:04.014Z,39.14
2023-06-03T10:41:31.166Z,39.55
2023-06-03T10:43:58.177Z,38.67
2023-06-03T10:46:25.188Z,38.18
2023-06-03T10:48:52.144Z,37.58
2023-06-03T10:51:21.354Z,37.38
2023-06-03T10:53:48.316Z,36.70
2023-06-03T10:56:15.033Z,36.98
2023-06-03T10:58:47.932Z,37.09
2023-06-03T11:01:15.581Z,36.23
2023-06-03T11:03:42.525Z,35.73
2023-06-03T11:06:09.357Z,36.13
2023-06-03T11:08:36.285Z,37.14
2023-06-03T11:11:02.940Z,36.78
2023-06-03T11:13:30.026Z,35.67
2023-06-03T11:15:56.904Z,35.49
2023-06-03T11:18:30.739Z,35.16
2023-06-03T11:20:57.719Z,34.67
2023-06-03T11:23:24.511Z,34.52
2023-06-03T11:25:51.220Z,35.42
2023-06-03T11:28:18.086Z,37.00
2023-06-03T11:30:45.072Z,37.07
2023-06-03T11:33:12.024Z,36.95
2023-06-03T11:35:38.936Z,36.05
2023-06-03T11:38:05.586Z,36.62
2023-06-03T11:40:32.145Z,36.41
2023-06-03T11:42:58.978Z,36.27
2023-06-03T11:45:25.903Z,35.69
2023-06-03T11:47:52.974Z,36.06
2023-06-03T11:50:19.615Z,36.03
2023-06-03T11:52:46.705Z,36.92
2023-06-03T11:55:13.358Z,35.98
2023-06-03T11:57:40.990Z,35.98
2023-06-03T12:00:07.936Z,36.10
2023-06-03T12:02:35.818Z,34.93
2023-06-03T12:05:09.630Z,35.85
2023-06-03T12:07:36.561Z,36.31
2023-06-03T12:10:06.089Z,35.69
2023-06-03T12:12:33.021Z,34.83
2023-06-03T12:14:59.630Z,36.68
2023-06-03T12:17:26.697Z,35.97
2023-06-03T12:19:53.672Z,36.04
2023-06-03T12:22:20.329Z,35.66
2023-06-03T12:24:47.005Z,35.05
2023-06-03T12:27:13.916Z,34.97
2023-06-03T12:29:40.668Z,34.66
2023-06-03T12:32:07.541Z,35.91
2023-06-03T12:34:34.558Z,35.60
2023-06-03T12:37:01.152Z,35.09
2023-06-03T12:39:27.808Z,35.37
2023-06-03T12:41:57.598Z,34.42
2023-06-03T12:44:24.391Z,33.79
2023-06-03T12:46:51.070Z,33.55
2023-06-03T12:49:19.757Z,32.80
2023-06-03T12:51:47.978Z,33.15
2023-06-03T12:54:16.952Z,33.95
2023-06-03T12:56:43.878Z,33.58
2023-06-03T12:59:10.496Z,34.43
2023-06-03T13:01:37.572Z,34.34
2023-06-03T13:04:04.095Z,34.15
2023-06-03T13:06:30.777Z,33.96
2023-06-03T13:08:57.514Z,33.01
2023-06-03T13:11:24.062Z,33.59
2023-06-03T13:13:50.794Z,34.08
2023-06-03T13:16:17.746Z,33.34
2023-06-03T13:18:44.488Z,33.57
2023-06-03T13:21:11.480Z,33.82
2023-06-03T13:23:38.428Z,33.90
2023-06-03T13:26:05.326Z,33.89
2023-06-03T13:28:32.330Z,34.23
2023-06-03T13:31:00.647Z,34.33
2023-06-03T13:33:29.153Z,33.47
2023-06-03T13:35:55.834Z,32.49
2023-06-03T13:38:22.455Z,33.23
2023-06-03T13:40:49.208Z,33.04
2023-06-03T13:43:15.736Z,32.86
2023-06-03T13:45:42.975Z,31.74
2023-06-03T13:48:09.711Z,31.72
2023-06-03T13:50:36.336Z,31.34
2023-06-03T13:53:02.972Z,30.69
2023-06-03T13:55:29.947Z,31.95
2023-06-03T13:58:03.848Z,31.43
2023-06-03T14:00:31.540Z,30.85
2023-06-03T14:02:59.630Z,31.07
2023-06-03T14:05:27.128Z,30.54
2023-06-03T14:07:54.234Z,30.50
2023-06-03T14:10:22.507Z,30.25
2023-06-03T14:12:50.817Z,31.08
2023-06-03T14:15:17.950Z,31.88
2023-06-03T14:17:47.991Z,32.91
2023-06-03T14:20:14.612Z,32.22
2023-06-03T14:22:42.061Z,33.84
2023-06-03T14:25:08.655Z,39.34
2023-06-03T14:27:35.465Z,45.17
2023-06-03T14:30:02.465Z,50.42
2023-06-03T14:32:29.142Z,54.50
2023-06-03T14:34:55.896Z,60.49
2023-06-03T14:37:22.582Z,100.00
2023-06-03T14:39:51.654Z,87.54
2023-06-03T14:42:18.755Z,85.15
2023-06-03T14:44:59.902Z,75.41
2023-06-03T14:47:28.347Z,74.73
2023-06-03T14:49:55.139Z,68.65
2023-06-03T14:52:21.823Z,68.23
2023-06-03T14:54:49.518Z,63.99
2023-06-03T14:57:16.999Z,61.99
2023-06-03T14:59:43.745Z,52.73
2023-06-03T15:02:23.947Z,56.74
2023-06-03T15:04:50.651Z,55.92
2023-06-03T15:07:17.611Z,55.84
2023-06-03T15:09:44.480Z,57.01
2023-06-03T15:12:11.978Z,55.55
2023-06-03T15:14:38.670Z,56.22
2023-06-03T15:17:05.503Z,49.30
2023-06-03T15:19:33.606Z,58.20
2023-06-03T15:22:05.657Z,62.04
2023-06-03T15:24:32.551Z,64.49
2023-06-03T15:26:59.467Z,63.01
2023-06-03T15:29:26.080Z,61.46
2023-06-03T15:32:00.060Z,55.51
2023-06-03T15:34:26.740Z,59.77
2023-06-03T15:36:53.401Z,52.52
2023-06-03T15:39:20.237Z,53.35
2023-06-03T15:41:46.985Z,55.63
2023-06-03T15:44:13.927Z,56.71
2023-06-03T15:46:40.830Z,59.29
2023-06-03T15:49:07.902Z,60.50
2023-06-03T15:51:34.810Z,56.63
2023-06-03T15:54:02.336Z,58.38
2023-06-03T15:56:29.301Z,56.31
2023-06-03T15:58:57.687Z,59.42
2023-06-03T16:01:24.575Z,52.38
2023-06-03T16:03:51.476Z,51.06
2023-06-03T16:06:19.794Z,52.72
2023-06-03T16:08:47.623Z,52.61
2023-06-03T16:11:14.317Z,53.85
2023-06-03T16:13:41.336Z,53.94
2023-06-03T16:16:12.370Z,52.53
2023-06-03T16:18:38.952Z,52.82
2023-06-03T16:21:06.630Z,55.04
2023-06-03T16:23:33.329Z,54.25
2023-06-03T16:26:00.332Z,55.17
2023-06-03T16:28:26.999Z,51.42
2023-06-03T16:30:55.774Z,52.53
2023-06-03T16:35:53.803Z,52.26
2023-06-03T16:38:20.392Z,50.19
2023-06-03T16:40:48.396Z,52.25
2023-06-03T16:43:15.944Z,53.81
2023-06-03T16:45:42.819Z,53.90
2023-06-03T16:50:56.280Z,53.87
2023-06-03T16:53:23.933Z,54.40
2023-06-03T16:55:50.902Z,55.22
2023-06-03T16:58:17.556Z,55.68
2023-06-03T17:00:48.776Z,55.87
2023-06-03T17:03:15.647Z,55.90
2023-06-03T17:05:42.436Z,55.62
2023-06-03T17:08:11.548Z,56.06
2023-06-03T17:10:38.261Z,55.31
2023-06-03T17:13:04.921Z,55.01
2023-06-03T17:15:33.192Z,54.80
2023-06-03T17:18:00.866Z,54.30
2023-06-03T17:20:27.806Z,53.34
2023-06-03T17:22:54.480Z,52.43
2023-06-03T17:25:21.954Z,51.34
2023-06-03T17:27:48.889Z,50.85
2023-06-03T17:30:15.419Z,50.57
2023-06-03T17:32:45.762Z,50.63
2023-06-03T17:35:12.815Z,50.76
2023-06-03T17:37:42.281Z,50.78
2023-06-03T17:40:09.368Z,51.97
2023-06-03T17:42:36.070Z,50.52
2023-06-03T17:45:06.699Z,51.02
2023-06-03T17:47:35.885Z,47.89
2023-06-03T17:50:02.575Z,46.43
2023-06-03T17:52:29.258Z,44.61
2023-06-03T17:54:56.781Z,43.55
2023-06-03T17:57:25.690Z,42.52
2023-06-03T17:59:52.613Z,43.40
2023-06-03T18:02:20.148Z,42.99
2023-06-03T18:04:47.380Z,42.38
2023-06-03T18:07:15.010Z,41.61
2023-06-03T18:09:41.906Z,43.14
2023-06-03T18:12:10.487Z,42.92
2023-06-03T18:14:37.098Z,44.02
2023-06-03T18:17:08.584Z,44.82
2023-06-03T18:19:35.461Z,44.00
2023-06-03T18:22:03.152Z,47.61
2023-06-03T18:24:31.101Z,48.95
2023-06-03T18:26:57.789Z,47.74
2023-06-03T18:29:24.759Z,49.71
2023-06-03T18:31:52.434Z,48.95
2023-06-03T18:34:19.008Z,50.09
2023-06-03T18:36:46.947Z,49.53
2023-06-03T18:39:13.517Z,50.92
2023-06-03T18:41:40.447Z,51.89
2023-06-03T18:44:07.732Z,52.73
2023-06-03T18:46:34.644Z,52.93
2023-06-03T18:49:03.555Z,51.59
2023-06-03T18:51:30.484Z,53.51
2023-06-03T18:53:59.352Z,53.02
2023-06-03T18:56:26.141Z,52.32
2023-06-03T18:58:56.737Z,50.48
2023-06-03T19:01:27.937Z,48.25
2023-06-03T19:03:55.493Z,47.25
2023-06-03T19:06:23.252Z,47.26
2023-06-03T19:08:49.971Z,46.06
2023-06-03T19:11:18.820Z,43.87
2023-06-03T19:13:45.816Z,44.76
2023-06-03T19:16:12.493Z,45.02
2023-06-03T19:18:39.086Z,45.87
2023-06-03T19:21:05.674Z,46.98
2023-06-03T19:23:32.445Z,45.02
2023-06-03T19:26:05.345Z,44.37
2023-06-03T19:28:32.629Z,43.16
2023-06-03T19:31:03.448Z,43.34
2023-06-03T19:33:36.101Z,43.18
2023-06-03T19:39:12.132Z,46.26
2023-06-03T19:41:41.710Z,45.85
2023-06-03T19:44:09.764Z,46.89
2023-06-03T19:46:43.890Z,46.95
2023-06-03T19:49:16.915Z,47.69
2023-06-03T19:51:43.807Z,48.15
2023-06-03T19:54:11.689Z,48.85
2023-06-03T19:56:43.077Z,48.65
2023-06-03T19:59:12.568Z,48.71
2023-06-03T20:01:39.411Z,49.06
2023-06-03T20:04:08.962Z,49.35
2023-06-03T20:06:36.084Z,49.23
2023-06-03T20:09:06.703Z,49.04
2023-06-03T20:11:40.407Z,50.17
2023-06-03T20:14:09.377Z,49.75
2023-06-03T20:16:36.511Z,50.37
2023-06-03T20:19:04.263Z,50.83
2023-06-03T20:21:30.802Z,50.45
2023-06-03T20:23:58.948Z,49.52
2023-06-03T20:26:26.709Z,52.17
2023-06-03T20:28:53.505Z,52.74
2023-06-03T20:31:20.246Z,52.50
2023-06-03T20:33:47.199Z,52.75
2023-06-03T20:36:14.176Z,50.88
2023-06-03T20:38:41.358Z,51.98
2023-06-03T20:41:08.350Z,50.98
2023-06-03T20:43:35.642Z,50.35
2023-06-03T20:46:06.939Z,52.60
2023-06-03T20:48:33.856Z,54.15
2023-06-03T20:54:01.008Z,53.24
2023-06-03T20:56:28.493Z,54.44
2023-06-03T20:58:55.174Z,58.60
2023-06-03T21:01:24.042Z,62.36
2023-06-03T21:03:51.193Z,61.43
2023-06-03T21:06:18.539Z,63.11
2023-06-03T21:08:45.235Z,63.91
2023-06-03T21:11:11.862Z,64.26
2023-06-03T21:13:38.562Z,64.63
2023-06-03T21:16:07.695Z,62.48
2023-06-03T21:18:34.733Z,61.21
2023-06-03T21:21:03.443Z,60.11
2023-06-03T21:23:30.612Z,59.71
2023-06-03T21:25:58.754Z,58.38
2023-06-03T21:28:26.498Z,56.60
2023-06-03T21:30:53.039Z,55.38
2023-06-03T21:33:20.477Z,55.03
2023-06-03T21:35:47.566Z,56.64
2023-06-03T21:38:14.385Z,59.08
2023-06-03T21:40:44.465Z,62.36
2023-06-03T21:43:12.417Z,61.76
2023-06-03T21:45:39.725Z,60.81
2023-06-03T21:48:06.617Z,58.66
2023-06-03T21:50:33.418Z,57.24
2023-06-03T21:53:00.136Z,57.12
2023-06-03T21:55:27.053Z,57.40
2023-06-03T21:57:53.858Z,56.84
2023-06-03T22:00:20.549Z,55.53
2023-06-03T22:02:47.478Z,55.18
2023-06-03T22:05:14.095Z,52.85
2023-06-03T22:07:41.541Z,54.97
2023-06-03T22:10:08.240Z,54.71
2023-06-03T22:12:35.554Z,53.84
2023-06-03T22:15:02.391Z,51.91
2023-06-03T22:17:29.447Z,52.02
2023-06-03T22:19:56.396Z,52.61
2023-06-03T22:22:23.589Z,52.19
2023-06-03T22:24:51.041Z,52.57
2023-06-03T22:27:17.585Z,53.21
2023-06-03T22:29:46.057Z,53.95
2023-06-03T22:32:12.699Z,52.38
2023-06-03T22:34:39.484Z,53.07
2023-06-03T22:37:06.252Z,53.74
2023-06-03T22:39:33.600Z,54.16
2023-06-03T22:42:00.504Z,54.07
2023-06-03T22:44:27.177Z,53.82
2023-06-03T22:46:56.074Z,55.37
2023-06-03T22:49:22.762Z,57.43
2023-06-03T22:51:49.535Z,56.87
2023-06-03T22:54:16.231Z,55.99
2023-06-03T22:56:44.750Z,56.63
2023-06-03T22:59:13.831Z,56.34
2023-06-03T23:01:40.573Z,57.09
2023-06-03T23:04:09.212Z,56.53
2023-06-03T23:06:36.135Z,55.96
2023-06-03T23:09:05.070Z,54.81
2023-06-03T23:11:31.746Z,54.46
2023-06-03T23:14:00.680Z,53.64
2023-06-03T23:16:27.372Z,52.97
2023-06-03T23:18:54.086Z,53.70
2023-06-03T23:21:21.006Z,52.41
2023-06-03T23:23:47.929Z,52.16
2023-06-03T23:26:14.464Z,52.30
2023-06-03T23:28:41.302Z,53.16
2023-06-03T23:31:08.017Z,52.41
2023-06-03T23:33:34.768Z,51.42
2023-06-03T23:36:01.421Z,51.29
2023-06-03T23:38:28.115Z,51.19
2023-06-03T23:40:55.566Z,51.20
2023-06-03T23:43:22.522Z,51.81
2023-06-03T23:45:49.232Z,51.64
2023-06-03T23:48:17.064Z,52.78
2023-06-03T23:50:43.697Z,53.70
2023-06-03T23:53:10.619Z,55.38
2023-06-03T23:55:37.244Z,55.94
2023-06-03T23:58:03.898Z,55.26
